createdAt,value
2019-03-18T00:00:55.435Z,2.32
2019-03-18T00:03:24.419Z,2.39
2019-03-18T00:05:53.408Z,2.36
2019-03-18T00:08:22.096Z,2.35
2019-03-18T00:10:50.808Z,0.61
2019-03-18T00:13:19.511Z,2.34
2019-03-18T00:15:48.198Z,2.38
2019-03-18T00:18:16.888Z,2.40
2019-03-18T00:20:45.855Z,2.35
2019-03-18T00:23:14.546Z,2.36
2019-03-18T00:25:43.515Z,2.32
2019-03-18T00:28:12.448Z,2.35
2019-03-18T00:30:41.406Z,2.33
2019-03-18T00:33:10.110Z,2.33
2019-03-18T00:35:38.794Z,2.37
2019-03-18T00:38:07.747Z,2.39
2019-03-18T00:40:36.486Z,2.40
2019-03-18T00:43:05.255Z,2.37
2019-03-18T00:45:34.465Z,2.36
2019-03-18T00:48:03.757Z,2.37
2019-03-18T00:50:32.765Z,2.37
2019-03-18T00:53:01.461Z,2.39
2019-03-18T00:55:30.146Z,2.41
2019-03-18T00:57:58.875Z,2.45
2019-03-18T01:00:27.594Z,2.45
2019-03-18T01:02:56.279Z,2.44
2019-03-18T01:05:24.989Z,2.43
2019-03-18T01:07:54.010Z,2.43
2019-03-18T01:10:22.700Z,2.46
2019-03-18T01:12:51.482Z,2.43
2019-03-18T01:15:27.844Z,2.43
2019-03-18T01:17:51.442Z,2.43
2019-03-18T01:20:20.194Z,2.44
2019-03-18T01:22:49.393Z,2.47
2019-03-18T01:25:18.348Z,2.51
2019-03-18T01:27:47.510Z,2.50
2019-03-18T01:30:16.411Z,2.52
2019-03-18T01:32:45.087Z,2.48
2019-03-18T01:35:13.834Z,2.51
2019-03-18T01:37:42.509Z,2.51
2019-03-18T01:40:11.409Z,2.51
2019-03-18T01:42:40.579Z,2.52
2019-03-18T01:45:09.903Z,2.49
2019-03-18T01:47:38.574Z,2.47
2019-03-18T01:50:07.635Z,2.51
2019-03-18T01:52:36.556Z,2.52
2019-03-18T01:55:05.859Z,2.51
2019-03-18T01:57:34.630Z,2.50
2019-03-18T02:00:03.314Z,2.49
2019-03-18T02:02:32.035Z,2.48
2019-03-18T02:05:00.995Z,2.42
2019-03-18T02:07:30.184Z,2.42
2019-03-18T02:09:59.136Z,2.43
2019-03-18T02:12:27.835Z,2.44
2019-03-18T02:14:56.757Z,2.42
2019-03-18T02:17:25.441Z,2.42
2019-03-18T02:19:54.132Z,2.42
2019-03-18T02:22:22.958Z,2.44
2019-03-18T02:24:51.658Z,2.41
2019-03-18T02:27:20.348Z,2.41
2019-03-18T02:29:49.282Z,2.41
2019-03-18T02:32:18.052Z,2.38
2019-03-18T02:34:46.978Z,2.36
2019-03-18T02:37:15.674Z,2.34
2019-03-18T02:39:44.692Z,2.35
2019-03-18T02:42:13.400Z,2.35
2019-03-18T02:44:42.863Z,2.34
2019-03-18T02:47:11.821Z,2.33
2019-03-18T02:49:40.774Z,2.33
2019-03-18T02:52:09.456Z,2.32
2019-03-18T02:54:38.398Z,2.29
2019-03-18T02:57:07.550Z,2.32
2019-03-18T02:59:36.488Z,2.34
2019-03-18T03:02:05.478Z,2.35
2019-03-18T03:04:34.154Z,2.38
2019-03-18T03:07:02.660Z,2.37
2019-03-18T03:09:31.340Z,2.41
2019-03-18T03:12:00.044Z,2.41
2019-03-18T03:14:28.712Z,2.42
2019-03-18T03:16:57.433Z,2.43
2019-03-18T03:19:26.352Z,2.43
2019-03-18T03:21:55.133Z,2.44
2019-03-18T03:24:23.871Z,2.44
2019-03-18T03:26:52.792Z,2.46
2019-03-18T03:29:21.755Z,2.43
2019-03-18T03:31:50.450Z,2.41
2019-03-18T03:34:19.139Z,2.38
2019-03-18T03:36:48.166Z,2.36
2019-03-18T03:39:17.166Z,2.32
2019-03-18T03:41:46.107Z,2.29
2019-03-18T03:44:15.312Z,2.27
2019-03-18T03:46:44.238Z,2.23
2019-03-18T03:49:14.128Z,2.16
2019-03-18T03:51:42.867Z,1.99
2019-03-18T03:54:14.396Z,1.73
2019-03-18T03:56:43.757Z,1.58
2019-03-18T03:59:12.856Z,1.45
2019-03-18T04:01:41.961Z,1.38
2019-03-18T04:04:10.788Z,1.38
2019-03-18T04:06:39.589Z,1.36
2019-03-18T04:09:08.521Z,1.38
2019-03-18T04:11:37.494Z,1.39
2019-03-18T04:14:06.218Z,1.42
2019-03-18T04:16:35.425Z,1.43
2019-03-18T04:19:04.377Z,1.48
2019-03-18T04:21:33.394Z,1.52
2019-03-18T04:24:02.355Z,1.60
2019-03-18T04:26:31.563Z,1.63
2019-03-18T04:29:00.261Z,1.66
2019-03-18T04:31:28.951Z,1.70
2019-03-18T04:33:57.645Z,1.77
2019-03-18T04:36:26.595Z,1.82
2019-03-18T04:38:55.571Z,1.86
2019-03-18T04:41:24.554Z,1.90
2019-03-18T04:43:53.713Z,1.91
2019-03-18T04:46:22.433Z,1.95
2019-03-18T04:48:51.492Z,1.98
2019-03-18T04:51:20.256Z,2.01
2019-03-18T04:53:49.198Z,2.04
2019-03-18T04:56:17.929Z,2.06
2019-03-18T04:58:46.868Z,2.08
2019-03-18T05:01:15.631Z,2.11
2019-03-18T05:03:44.353Z,2.12
2019-03-18T05:06:13.127Z,2.17
2019-03-18T05:08:42.095Z,2.21
2019-03-18T05:11:10.741Z,2.21
2019-03-18T05:13:39.497Z,2.21
2019-03-18T05:16:08.458Z,2.23
2019-03-18T05:18:37.146Z,2.25
2019-03-18T05:21:05.851Z,2.25
2019-03-18T05:23:34.792Z,2.26
2019-03-18T05:26:03.743Z,2.26
2019-03-18T05:28:32.428Z,2.30
2019-03-18T05:31:01.610Z,2.32
2019-03-18T05:33:30.303Z,2.32
2019-03-18T05:35:59.372Z,2.34
2019-03-18T05:38:28.024Z,2.35
2019-03-18T05:40:57.013Z,2.35
2019-03-18T05:43:25.722Z,2.36
2019-03-18T05:45:54.417Z,2.35
2019-03-18T05:48:23.700Z,2.33
2019-03-18T05:50:52.677Z,2.29
2019-03-18T05:53:21.667Z,2.28
2019-03-18T05:55:50.511Z,2.30
2019-03-18T05:58:19.581Z,2.30
2019-03-18T06:00:48.261Z,2.33
2019-03-18T06:03:16.983Z,2.34
2019-03-18T06:05:45.673Z,2.38
2019-03-18T06:08:14.379Z,2.37
2019-03-18T06:10:43.092Z,2.34
2019-03-18T06:13:11.833Z,2.36
2019-03-18T06:15:41.175Z,2.38
2019-03-18T06:18:09.868Z,2.36
2019-03-18T06:20:38.556Z,2.34
2019-03-18T06:23:07.278Z,2.32
2019-03-18T06:25:35.996Z,2.36
2019-03-18T06:28:04.691Z,2.39
2019-03-18T06:30:33.665Z,2.43
2019-03-18T06:33:02.383Z,2.45
2019-03-18T06:35:31.120Z,2.54
2019-03-18T06:38:00.089Z,2.54
2019-03-18T06:40:28.784Z,2.54
2019-03-18T06:42:57.484Z,2.59
2019-03-18T06:45:26.461Z,2.62
2019-03-18T06:48:04.401Z,2.61
2019-03-18T06:50:25.651Z,2.59
2019-03-18T06:52:54.667Z,2.56
2019-03-18T06:55:23.642Z,2.58
2019-03-18T06:57:52.648Z,2.59
2019-03-18T07:00:21.351Z,2.65
2019-03-18T07:02:50.339Z,2.67
2019-03-18T07:05:21.505Z,2.79
2019-03-18T07:07:50.840Z,2.83
2019-03-18T07:10:19.525Z,2.87
2019-03-18T07:12:48.577Z,2.84
2019-03-18T07:15:17.244Z,2.86
2019-03-18T07:17:45.979Z,2.86
2019-03-18T07:20:14.764Z,2.85
2019-03-18T07:22:43.534Z,2.88
2019-03-18T07:25:12.638Z,2.84
2019-03-18T07:27:41.870Z,2.89
2019-03-18T07:30:10.624Z,2.92
2019-03-18T07:32:39.633Z,2.91
2019-03-18T07:35:08.382Z,2.94
2019-03-18T07:37:37.429Z,2.93
2019-03-18T07:40:07.256Z,2.76
2019-03-18T07:42:35.986Z,2.68
2019-03-18T07:45:05.364Z,2.68
2019-03-18T07:47:34.303Z,2.71
2019-03-18T07:50:03.310Z,2.72
2019-03-18T07:52:32.026Z,2.70
2019-03-18T07:55:00.732Z,2.78
2019-03-18T07:57:32.554Z,2.98
2019-03-18T08:00:00.143Z,2.93
2019-03-18T08:02:29.031Z,3.02
2019-03-18T08:04:58.305Z,2.97
2019-03-18T08:07:26.985Z,2.93
2019-03-18T08:09:55.995Z,3.07
2019-03-18T08:12:24.981Z,3.11
2019-03-18T08:14:53.689Z,3.06
2019-03-18T08:17:22.712Z,3.07
2019-03-18T08:19:51.452Z,3.23
2019-03-18T08:22:20.139Z,3.46
2019-03-18T08:24:48.828Z,3.42
2019-03-18T08:27:17.530Z,3.36
2019-03-18T08:29:46.215Z,3.45
2019-03-18T08:32:15.175Z,3.55
2019-03-18T08:34:44.478Z,3.69
2019-03-18T08:37:13.776Z,3.87
2019-03-18T08:39:42.879Z,3.89
2019-03-18T08:42:11.558Z,3.72
2019-03-18T08:44:40.616Z,3.56
2019-03-18T08:47:09.439Z,3.57
2019-03-18T08:49:38.134Z,3.67
2019-03-18T08:52:07.102Z,3.76
2019-03-18T08:54:36.128Z,3.82
2019-03-18T08:57:05.117Z,3.82
2019-03-18T08:59:34.090Z,3.86
2019-03-18T09:02:02.784Z,3.74
2019-03-18T09:04:31.486Z,3.73
2019-03-18T09:07:00.181Z,3.79
2019-03-18T09:09:28.904Z,3.93
2019-03-18T09:11:57.589Z,4.15
2019-03-18T09:14:26.918Z,4.20
2019-03-18T09:16:55.909Z,4.28
2019-03-18T09:19:25.220Z,4.33
2019-03-18T09:21:53.890Z,4.34
2019-03-18T09:24:22.692Z,4.23
2019-03-18T09:27:01.788Z,4.21
2019-03-18T09:29:22.000Z,4.13
2019-03-18T09:31:51.039Z,4.27
2019-03-18T09:34:19.711Z,4.52
2019-03-18T09:36:48.395Z,4.67
2019-03-18T09:39:17.163Z,4.72
2019-03-18T09:41:46.148Z,4.59
2019-03-18T09:44:14.819Z,4.50
2019-03-18T09:46:43.493Z,4.46
2019-03-18T09:49:21.651Z,4.36
2019-03-18T09:51:42.912Z,4.34
2019-03-18T09:54:11.596Z,4.33
2019-03-18T09:56:40.308Z,4.36
2019-03-18T09:59:08.988Z,4.48
2019-03-18T10:01:37.987Z,4.66
2019-03-18T10:04:06.673Z,4.73
2019-03-18T10:06:35.976Z,4.68
2019-03-18T10:09:08.044Z,4.65
2019-03-18T10:11:36.300Z,4.62
2019-03-18T10:14:04.985Z,4.61
2019-03-18T10:16:33.721Z,4.64
2019-03-18T10:19:02.680Z,4.72
2019-03-18T10:21:31.390Z,4.73
2019-03-18T10:24:00.098Z,4.84
2019-03-18T10:26:28.854Z,4.81
2019-03-18T10:28:57.546Z,4.75
2019-03-18T10:31:26.756Z,4.97
2019-03-18T10:33:55.418Z,4.73
2019-03-18T10:36:24.097Z,5.50
2019-03-18T10:38:53.142Z,5.68
2019-03-18T10:41:21.837Z,5.72
2019-03-18T10:43:50.848Z,5.36
2019-03-18T10:46:20.559Z,5.27
2019-03-18T10:48:49.303Z,5.32
2019-03-18T10:51:18.010Z,5.29
2019-03-18T10:53:46.714Z,5.23
2019-03-18T10:56:17.237Z,5.11
2019-03-18T10:58:46.776Z,5.15
2019-03-18T11:01:16.293Z,5.18
2019-03-18T11:03:45.658Z,5.24
2019-03-18T11:06:14.358Z,5.63
2019-03-18T11:08:43.052Z,5.70
2019-03-18T11:11:11.770Z,5.87
2019-03-18T11:13:40.451Z,6.04
2019-03-18T11:16:09.587Z,6.16
2019-03-18T11:18:38.800Z,6.23
2019-03-18T11:21:07.594Z,6.47
2019-03-18T11:23:36.296Z,6.26
2019-03-18T11:26:05.064Z,6.60
2019-03-18T11:28:33.768Z,6.55
2019-03-18T11:31:02.479Z,6.89
2019-03-18T11:33:31.265Z,6.54
2019-03-18T11:36:00.012Z,6.41
2019-03-18T11:38:31.853Z,6.40
2019-03-18T11:40:59.393Z,6.64
2019-03-18T11:43:28.389Z,6.63
2019-03-18T11:45:57.120Z,6.57
2019-03-18T11:48:25.816Z,6.45
2019-03-18T11:50:55.194Z,6.33
2019-03-18T11:53:24.182Z,6.07
2019-03-18T11:55:53.165Z,5.98
2019-03-18T11:58:22.149Z,5.85
2019-03-18T12:00:51.183Z,5.78
2019-03-18T12:03:20.151Z,5.76
2019-03-18T12:05:49.552Z,5.72
2019-03-18T12:08:18.545Z,5.65
2019-03-18T12:10:47.271Z,5.63
2019-03-18T12:13:15.953Z,5.62
2019-03-18T12:15:44.638Z,5.57
2019-03-18T12:18:13.352Z,5.46
2019-03-18T12:20:42.427Z,5.26
2019-03-18T12:23:11.475Z,4.89
2019-03-18T12:25:42.563Z,4.60
2019-03-18T12:28:11.846Z,4.60
2019-03-18T12:30:40.626Z,4.59
2019-03-18T12:33:09.764Z,4.66
2019-03-18T12:35:38.439Z,4.67
2019-03-18T12:38:07.246Z,4.72
2019-03-18T12:40:35.859Z,4.83
2019-03-18T12:43:04.616Z,4.89
2019-03-18T12:45:33.353Z,4.89
2019-03-18T12:48:02.273Z,4.92
2019-03-18T12:50:49.019Z,4.98
2019-03-18T12:53:02.763Z,4.79
2019-03-18T12:55:31.702Z,4.83
2019-03-18T12:58:00.440Z,4.82
2019-03-18T13:00:29.218Z,4.78
2019-03-18T13:02:58.088Z,4.89
2019-03-18T13:05:26.938Z,5.15
2019-03-18T13:07:55.741Z,5.37
2019-03-18T13:10:24.439Z,5.52
2019-03-18T13:12:53.188Z,5.85
2019-03-18T13:15:22.269Z,6.21
2019-03-18T13:17:50.959Z,6.01
2019-03-18T13:20:20.109Z,6.20
2019-03-18T13:22:49.155Z,6.53
2019-03-18T13:25:18.239Z,6.59
2019-03-18T13:27:47.017Z,6.53
2019-03-18T13:30:16.845Z,6.36
2019-03-18T13:32:45.974Z,6.15
2019-03-18T13:35:16.520Z,6.39
2019-03-18T13:37:45.465Z,6.41
2019-03-18T13:40:14.303Z,6.49
2019-03-18T13:42:45.629Z,6.31
2019-03-18T13:45:15.194Z,6.29
2019-03-18T13:47:45.730Z,6.21
2019-03-18T13:50:15.660Z,6.29
2019-03-18T13:52:44.467Z,6.27
2019-03-18T13:55:13.301Z,6.16
2019-03-18T13:57:42.341Z,6.09
2019-03-18T14:00:13.184Z,6.09
2019-03-18T14:02:42.063Z,5.97
2019-03-18T14:05:10.972Z,5.92
2019-03-18T14:07:40.027Z,5.55
2019-03-18T14:10:10.644Z,5.16
2019-03-18T14:12:39.382Z,5.03
2019-03-18T14:15:11.474Z,5.00
2019-03-18T14:17:39.414Z,5.01
2019-03-18T14:20:09.698Z,4.87
2019-03-18T14:22:38.379Z,5.06
2019-03-18T14:25:07.516Z,5.42
2019-03-18T14:27:36.475Z,5.43
2019-03-18T14:30:06.423Z,5.79
2019-03-18T14:32:35.161Z,6.01
2019-03-18T14:35:04.194Z,5.61
2019-03-18T14:37:32.912Z,5.37
2019-03-18T14:40:02.021Z,5.37
2019-03-18T14:42:30.994Z,5.45
2019-03-18T14:44:59.674Z,5.37
2019-03-18T14:47:28.465Z,5.38
2019-03-18T14:49:57.156Z,5.43
2019-03-18T14:52:25.837Z,5.36
2019-03-18T14:54:54.852Z,5.43
2019-03-18T14:57:24.131Z,5.50
2019-03-18T14:59:52.798Z,5.43
2019-03-18T15:02:21.469Z,5.74
2019-03-18T15:04:50.150Z,5.81
2019-03-18T15:07:19.423Z,5.82
2019-03-18T15:09:48.454Z,5.92
2019-03-18T15:12:17.129Z,6.03
2019-03-18T15:14:45.820Z,6.07
2019-03-18T15:17:14.491Z,5.97
2019-03-18T15:19:43.786Z,5.95
2019-03-18T15:22:12.498Z,6.05
2019-03-18T15:24:41.446Z,6.11
2019-03-18T15:27:10.116Z,6.08
2019-03-18T15:29:39.146Z,6.13
2019-03-18T15:32:07.858Z,6.40
2019-03-18T15:34:36.543Z,6.51
2019-03-18T15:37:06.429Z,6.49
2019-03-18T15:39:35.374Z,6.56
2019-03-18T15:42:04.145Z,6.84
2019-03-18T15:44:32.838Z,6.96
2019-03-18T15:47:01.785Z,6.90
2019-03-18T15:49:51.867Z,6.99
2019-03-18T15:52:20.857Z,6.92
2019-03-18T15:54:54.024Z,6.49
2019-03-18T15:57:29.409Z,6.32
2019-03-18T15:59:52.027Z,6.41
2019-03-18T16:02:20.715Z,6.20
2019-03-18T16:04:49.712Z,5.87
2019-03-18T16:07:18.380Z,5.70
2019-03-18T16:09:47.066Z,5.64
2019-03-18T16:12:15.727Z,5.49
2019-03-18T16:14:44.437Z,4.54
2019-03-18T16:17:13.134Z,3.85
2019-03-18T16:19:41.810Z,3.39
2019-03-18T16:22:22.757Z,2.65
2019-03-18T16:24:40.921Z,3.26
2019-03-18T16:27:09.579Z,3.32
2019-03-18T16:29:38.274Z,3.46
2019-03-18T16:32:11.652Z,3.68
2019-03-18T16:34:37.351Z,3.69
2019-03-18T16:37:06.357Z,3.91
2019-03-18T16:39:35.044Z,4.26
2019-03-18T16:42:03.709Z,4.61
2019-03-18T16:44:32.621Z,4.73
2019-03-18T16:47:01.300Z,4.28
2019-03-18T16:49:30.259Z,4.17
2019-03-18T16:51:58.931Z,4.12
2019-03-18T16:54:27.648Z,4.04
2019-03-18T16:56:56.324Z,4.03
2019-03-18T16:59:25.037Z,4.13
2019-03-18T17:01:53.711Z,4.10
2019-03-18T17:04:22.736Z,4.37
2019-03-18T17:06:51.403Z,4.33
2019-03-18T17:09:20.074Z,4.17
2019-03-18T17:11:48.760Z,3.93
2019-03-18T17:14:17.453Z,3.86
2019-03-18T17:16:46.403Z,3.92
2019-03-18T17:19:15.088Z,3.97
2019-03-18T17:21:43.745Z,4.04
2019-03-18T17:24:12.420Z,4.03
2019-03-18T17:26:41.098Z,3.93
2019-03-18T17:29:09.771Z,3.89
2019-03-18T17:31:39.044Z,3.88
2019-03-18T17:34:07.960Z,3.86
2019-03-18T17:36:36.641Z,3.86
2019-03-18T17:39:08.883Z,3.87
2019-03-18T17:41:37.894Z,3.82
2019-03-18T17:44:06.633Z,3.69
2019-03-18T17:46:35.602Z,3.70
2019-03-18T17:49:04.338Z,3.72
2019-03-18T17:51:33.565Z,3.66
2019-03-18T17:54:02.200Z,3.61
2019-03-18T17:56:31.035Z,3.66
2019-03-18T17:58:59.647Z,3.76
2019-03-18T18:01:28.319Z,3.73
2019-03-18T18:03:57.040Z,3.73
2019-03-18T18:06:30.314Z,3.75
2019-03-18T18:09:00.352Z,3.66
2019-03-18T18:11:29.016Z,3.59
2019-03-18T18:13:58.779Z,3.71
2019-03-18T18:16:27.442Z,3.64
2019-03-18T18:18:56.453Z,3.51
2019-03-18T18:21:25.157Z,3.54
2019-03-18T18:23:53.846Z,3.52
2019-03-18T18:26:22.537Z,3.48
2019-03-18T18:28:51.512Z,3.44
2019-03-18T18:31:20.543Z,3.39
2019-03-18T18:33:49.207Z,3.55
2019-03-18T18:36:17.954Z,3.57
2019-03-18T18:38:46.677Z,3.55
2019-03-18T18:41:15.363Z,3.64
2019-03-18T18:43:44.365Z,3.62
2019-03-18T18:46:13.320Z,3.64
2019-03-18T18:48:42.385Z,3.55
2019-03-18T18:51:11.098Z,3.47
2019-03-18T18:53:41.127Z,3.46
2019-03-18T18:56:10.121Z,3.43
2019-03-18T18:58:38.788Z,3.37
2019-03-18T19:01:07.535Z,3.42
2019-03-18T19:03:36.481Z,3.37
2019-03-18T19:06:05.479Z,3.41
2019-03-18T19:08:34.467Z,3.48
2019-03-18T19:11:03.427Z,3.38
2019-03-18T19:13:32.454Z,3.52
2019-03-18T19:16:01.446Z,3.62
2019-03-18T19:18:37.538Z,3.62
2019-03-18T19:21:00.958Z,3.67
2019-03-18T19:23:37.608Z,3.58
2019-03-18T19:26:00.520Z,3.49
2019-03-18T19:28:29.178Z,3.36
2019-03-18T19:30:57.939Z,3.41
2019-03-18T19:33:26.613Z,3.37
2019-03-18T19:35:55.311Z,3.43
2019-03-18T19:38:23.994Z,3.48
2019-03-18T19:40:53.007Z,3.42
2019-03-18T19:43:21.690Z,3.37
2019-03-18T19:45:50.379Z,3.43
2019-03-18T19:48:21.424Z,3.51
2019-03-18T19:50:50.117Z,3.37
2019-03-18T19:53:19.104Z,3.29
2019-03-18T19:55:48.207Z,3.20
2019-03-18T19:58:17.305Z,3.18
2019-03-18T20:00:46.598Z,3.25
2019-03-18T20:03:15.301Z,3.21
2019-03-18T20:05:44.029Z,3.13
2019-03-18T20:08:13.213Z,3.10
2019-03-18T20:10:41.923Z,3.06
2019-03-18T20:13:10.695Z,3.00
2019-03-18T20:15:39.698Z,2.98
2019-03-18T20:18:09.022Z,3.00
2019-03-18T20:20:37.714Z,2.98
2019-03-18T20:23:06.726Z,3.30
2019-03-18T20:25:37.640Z,3.27
2019-03-18T20:28:06.383Z,3.18
2019-03-18T20:30:35.426Z,3.02
2019-03-18T20:33:04.244Z,3.01
2019-03-18T20:35:32.945Z,3.01
2019-03-18T20:38:01.609Z,2.97
2019-03-18T20:40:30.367Z,2.91
2019-03-18T20:42:59.052Z,2.89
2019-03-18T20:45:27.794Z,2.91
2019-03-18T20:47:56.479Z,2.91
2019-03-18T20:50:25.423Z,2.86
2019-03-18T20:52:54.369Z,2.85
2019-03-18T20:55:23.078Z,2.84
2019-03-18T20:57:51.794Z,2.83
2019-03-18T21:00:20.690Z,2.83
2019-03-18T21:02:49.552Z,2.82
2019-03-18T21:05:18.451Z,2.77
2019-03-18T21:07:47.579Z,2.76
2019-03-18T21:10:16.493Z,2.71
2019-03-18T21:12:45.333Z,2.84
2019-03-18T21:15:14.164Z,2.85
2019-03-18T21:17:43.321Z,2.76
2019-03-18T21:20:16.753Z,2.70
2019-03-18T21:22:45.509Z,2.64
2019-03-18T21:25:14.810Z,2.66
2019-03-18T21:27:43.711Z,2.63
2019-03-18T21:30:12.716Z,2.65
2019-03-18T21:32:41.523Z,2.61
2019-03-18T21:35:10.698Z,2.63
2019-03-18T21:37:39.463Z,2.66
2019-03-18T21:40:09.385Z,2.51
2019-03-18T21:42:38.076Z,2.57
2019-03-18T21:45:07.123Z,2.54
2019-03-18T21:47:35.797Z,2.53
2019-03-18T21:50:04.963Z,2.62
2019-03-18T21:52:33.694Z,2.58
2019-03-18T21:55:02.752Z,2.60
2019-03-18T21:57:31.463Z,2.51
2019-03-18T22:00:00.439Z,2.54
2019-03-18T22:02:29.123Z,2.42
2019-03-18T22:04:58.174Z,2.45
2019-03-18T22:07:26.878Z,2.38
2019-03-18T22:09:55.952Z,2.34
2019-03-18T22:12:24.948Z,2.33
2019-03-18T22:14:54.246Z,2.32
2019-03-18T22:17:22.956Z,2.26
2019-03-18T22:19:51.629Z,2.26
2019-03-18T22:22:20.417Z,2.26
2019-03-18T22:24:50.130Z,2.21
2019-03-18T22:27:18.949Z,2.21
2019-03-18T22:29:49.946Z,2.14
2019-03-18T22:32:19.245Z,2.13
2019-03-18T22:34:47.983Z,2.12
2019-03-18T22:37:16.667Z,2.12
2019-03-18T22:39:45.712Z,2.12
2019-03-18T22:42:14.402Z,2.14
2019-03-18T22:44:43.072Z,2.10
2019-03-18T22:47:11.830Z,2.06
2019-03-18T22:49:40.864Z,2.09
2019-03-18T22:52:11.239Z,2.02
2019-03-18T22:54:40.060Z,2.02
2019-03-18T22:57:09.029Z,2.03
2019-03-18T22:59:38.377Z,2.01
2019-03-18T23:02:07.065Z,1.99
2019-03-18T23:04:35.991Z,2.00
2019-03-18T23:07:04.899Z,1.99
2019-03-18T23:09:33.933Z,2.06
2019-03-18T23:12:03.040Z,2.23
2019-03-18T23:14:32.035Z,2.13
2019-03-18T23:17:01.030Z,2.05
2019-03-18T23:19:29.689Z,2.04
2019-03-18T23:21:58.444Z,2.01
2019-03-18T23:24:27.120Z,1.97
2019-03-18T23:26:56.372Z,1.89
2019-03-18T23:29:25.066Z,1.86
2019-03-18T23:31:53.730Z,1.93
2019-03-18T23:34:22.739Z,1.89
2019-03-18T23:36:51.755Z,1.93
2019-03-18T23:39:20.455Z,1.90
2019-03-18T23:41:49.719Z,1.94
2019-03-18T23:44:18.400Z,1.92
2019-03-18T23:46:47.472Z,1.86
2019-03-18T23:49:16.457Z,1.89
2019-03-18T23:51:45.479Z,1.90
2019-03-18T23:54:14.839Z,1.83
2019-03-18T23:56:43.715Z,1.82
2019-03-18T23:59:12.396Z,1.84
